sensor_id;sensor_type;location;lat;lon;timestamp;P1;durP1;ratioP1;P2;durP2;ratioP2
67429;SDS011;54298;52.076;5.264;2022-10-16T00:00:14;6.9;;;2.1;;
67429;SDS011;54298;52.076;5.264;2022-10-16T00:01:15;6.9;;;2.1;;
67429;SDS011;54298;52.076;5.264;2022-10-16T00:08:15;7.4;;;2.4;;
67429;SDS011;54298;52.076;5.264;2022-10-16T00:10:13;7.4;;;2.4;;
67429;SDS011;54298;52.076;5.264;2022-10-16T00:14:15;8.1;;;2.21;;
67429;SDS011;54298;52.076;5.264;2022-10-16T00:15:14;5.9;;;2.1;;
67429;SDS011;54298;52.076;5.264;2022-10-16T00:16:14;5.9;;;2.1;;
67429;SDS011;54298;52.076;5.264;2022-10-16T00:23:14;7.2;;;2.31;;
67429;SDS011;54298;52.076;5.264;2022-10-16T00:24:14;7.2;;;2.31;;
67429;SDS011;54298;52.076;5.264;2022-10-16T00:26:15;8.31;;;2.6;;
67429;SDS011;54298;52.076;5.264;2022-10-16T00:32:13;6.9;;;2.6;;
67429;SDS011;54298;52.076;5.264;2022-10-16T00:34:14;8.4;;;2.6;;
67429;SDS011;54298;52.076;5.264;2022-10-16T00:35:14;8.4;;;2.6;;
67429;SDS011;54298;52.076;5.264;2022-10-16T00:37:13;8.5;;;2.8;;
67429;SDS011;54298;52.076;5.264;2022-10-16T00:38:14;7.3;;;3.0;;
67429;SDS011;54298;52.076;5.264;2022-10-16T00:39:14;7.3;;;3.0;;
67429;SDS011;54298;52.076;5.264;2022-10-16T00:41:14;7.7;;;3.1;;
67429;SDS011;54298;52.076;5.264;2022-10-16T00:42:15;6.6;;;3.0;;
67429;SDS011;54298;52.076;5.264;2022-10-16T00:43:32;6.6;;;3.0;;
67429;SDS011;54298;52.076;5.264;2022-10-16T00:45:14;8.2;;;2.8;;
67429;SDS011;54298;52.076;5.264;2022-10-16T00:46:15;5.9;;;2.7;;
67429;SDS011;54298;52.076;5.264;2022-10-16T00:49:15;8.9;;;3.0;;
67429;SDS011;54298;52.076;5.264;2022-10-16T00:52:14;7.0;;;2.8;;
67429;SDS011;54298;52.076;5.264;2022-10-16T00:53:14;7.0;;;2.8;;
67429;SDS011;54298;52.076;5.264;2022-10-16T00:55:13;7.9;;;3.1;;
67429;SDS011;54298;52.076;5.264;2022-10-16T00:59:15;8.5;;;2.8;;
67429;SDS011;54298;52.076;5.264;2022-10-16T01:00:16;8.5;;;2.8;;
67429;SDS011;54298;52.076;5.264;2022-10-16T01:01:14;9.31;;;3.1;;
67429;SDS011;54298;52.076;5.264;2022-10-16T01:03:31;6.5;;;2.8;;
67429;SDS011;54298;52.076;5.264;2022-10-16T01:04:14;6.5;;;2.8;;
67429;SDS011;54298;52.076;5.264;2022-10-16T01:07:16;9.9;;;3.2;;
67429;SDS011;54298;52.076;5.264;2022-10-16T01:08:16;9.9;;;3.2;;
67429;SDS011;54298;52.076;5.264;2022-10-16T01:11:16;7.5;;;2.9;;
67429;SDS011;54298;52.076;5.264;2022-10-16T01:12:14;7.5;;;2.9;;
67429;SDS011;54298;52.076;5.264;2022-10-16T01:15:15;8.31;;;3.0;;
67429;SDS011;54298;52.076;5.264;2022-10-16T01:19:16;8.5;;;3.4;;
67429;SDS011;54298;52.076;5.264;2022-10-16T01:21:15;7.1;;;3.5;;
67429;SDS011;54298;52.076;5.264;2022-10-16T01:23:17;8.2;;;2.9;;
67429;SDS011;54298;52.076;5.264;2022-10-16T01:26:16;8.1;;;3.5;;
67429;SDS011;54298;52.076;5.264;2022-10-16T01:31:14;8.5;;;3.6;;
67429;SDS011;54298;52.076;5.264;2022-10-16T01:32:16;7.9;;;3.0;;
67429;SDS011;54298;52.076;5.264;2022-10-16T01:34:14;7.7;;;3.2;;
67429;SDS011;54298;52.076;5.264;2022-10-16T01:36:14;8.4;;;3.6;;
67429;SDS011;54298;52.076;5.264;2022-10-16T01:40:15;7.0;;;3.1;;
67429;SDS011;54298;52.076;5.264;2022-10-16T01:43:15;7.3;;;3.0;;
67429;SDS011;54298;52.076;5.264;2022-10-16T01:44:15;7.3;;;3.0;;
67429;SDS011;54298;52.076;5.264;2022-10-16T01:45:14;6.7;;;3.3;;
67429;SDS011;54298;52.076;5.264;2022-10-16T01:46:15;6.7;;;3.3;;
67429;SDS011;54298;52.076;5.264;2022-10-16T01:47:14;6.8;;;3.2;;
67429;SDS011;54298;52.076;5.264;2022-10-16T01:49:14;8.5;;;3.7;;
67429;SDS011;54298;52.076;5.264;2022-10-16T01:50:14;8.5;;;3.7;;
67429;SDS011;54298;52.076;5.264;2022-10-16T01:53:15;7.8;;;3.4;;
67429;SDS011;54298;52.076;5.264;2022-10-16T01:54:14;7.8;;;3.4;;
67429;SDS011;54298;52.076;5.264;2022-10-16T01:56:15;7.6;;;3.2;;
67429;SDS011;54298;52.076;5.264;2022-10-16T01:58:15;8.71;;;3.3;;
67429;SDS011;54298;52.076;5.264;2022-10-16T01:59:15;6.3;;;2.9;;
67429;SDS011;54298;52.076;5.264;2022-10-16T02:00:14;6.3;;;2.9;;
67429;SDS011;54298;52.076;5.264;2022-10-16T02:02:15;8.2;;;3.4;;
67429;SDS011;54298;52.076;5.264;2022-10-16T02:03:16;8.2;;;3.4;;
67429;SDS011;54298;52.076;5.264;2022-10-16T02:04:15;9.5;;;3.2;;
67429;SDS011;54298;52.076;5.264;2022-10-16T02:07:15;7.7;;;3.5;;
67429;SDS011;54298;52.076;5.264;2022-10-16T02:11:14;8.2;;;3.0;;
67429;SDS011;54298;52.076;5.264;2022-10-16T02:12:16;9.1;;;3.4;;
67429;SDS011;54298;52.076;5.264;2022-10-16T02:13:13;9.1;;;3.4;;
67429;SDS011;54298;52.076;5.264;2022-10-16T02:14:14;6.9;;;3.2;;
67429;SDS011;54298;52.076;5.264;2022-10-16T02:15:14;6.9;;;3.2;;
67429;SDS011;54298;52.076;5.264;2022-10-16T02:17:14;6.9;;;3.4;;
67429;SDS011;54298;52.076;5.264;2022-10-16T02:18:15;7.4;;;3.3;;
67429;SDS011;54298;52.076;5.264;2022-10-16T02:19:15;7.4;;;3.3;;
67429;SDS011;54298;52.076;5.264;2022-10-16T02:20:14;6.7;;;3.4;;
67429;SDS011;54298;52.076;5.264;2022-10-16T02:22:15;6.1;;;3.0;;
67429;SDS011;54298;52.076;5.264;2022-10-16T02:24:16;8.71;;;3.3;;
67429;SDS011;54298;52.076;5.264;2022-10-16T02:26:15;8.71;;;3.3;;
67429;SDS011;54298;52.076;5.264;2022-10-16T02:29:14;6.9;;;3.2;;
67429;SDS011;54298;52.076;5.264;2022-10-16T02:30:15;6.9;;;3.2;;
67429;SDS011;54298;52.076;5.264;2022-10-16T02:32:15;8.0;;;3.2;;
67429;SDS011;54298;52.076;5.264;2022-10-16T02:34:14;7.0;;;2.9;;
67429;SDS011;54298;52.076;5.264;2022-10-16T02:38:14;9.6;;;3.5;;
67429;SDS011;54298;52.076;5.264;2022-10-16T02:39:13;7.1;;;3.1;;
67429;SDS011;54298;52.076;5.264;2022-10-16T02:40:14;7.1;;;3.1;;
67429;SDS011;54298;52.076;5.264;2022-10-16T02:41:13;6.7;;;3.0;;
67429;SDS011;54298;52.076;5.264;2022-10-16T02:45:14;7.2;;;3.1;;
67429;SDS011;54298;52.076;5.264;2022-10-16T02:46:13;7.2;;;3.1;;
67429;SDS011;54298;52.076;5.264;2022-10-16T02:48:14;5.3;;;2.9;;
67429;SDS011;54298;52.076;5.264;2022-10-16T02:52:15;7.4;;;2.8;;
67429;SDS011;54298;52.076;5.264;2022-10-16T02:54:15;5.11;;;3.0;;
67429;SDS011;54298;52.076;5.264;2022-10-16T02:55:14;5.11;;;3.0;;
67429;SDS011;54298;52.076;5.264;2022-10-16T02:56:14;5.8;;;3.2;;
67429;SDS011;54298;52.076;5.264;2022-10-16T02:57:14;5.8;;;3.2;;
67429;SDS011;54298;52.076;5.264;2022-10-16T02:58:14;6.8;;;2.9;;
67429;SDS011;54298;52.076;5.264;2022-10-16T03:00:16;6.5;;;2.9;;
67429;SDS011;54298;52.076;5.264;2022-10-16T03:02:15;6.5;;;2.9;;
67429;SDS011;54298;52.076;5.264;2022-10-16T03:03:14;6.5;;;2.9;;
67429;SDS011;54298;52.076;5.264;2022-10-16T03:05:14;6.9;;;3.0;;
67429;SDS011;54298;52.076;5.264;2022-10-16T03:09:13;5.8;;;2.9;;
67429;SDS011;54298;52.076;5.264;2022-10-16T03:10:15;6.3;;;2.9;;
67429;SDS011;54298;52.076;5.264;2022-10-16T03:11:14;6.3;;;2.9;;
67429;SDS011;54298;52.076;5.264;2022-10-16T03:12:14;6.3;;;2.9;;
67429;SDS011;54298;52.076;5.264;2022-10-16T03:13:14;6.7;;;2.9;;
67429;SDS011;54298;52.076;5.264;2022-10-16T03:15:14;7.8;;;3.1;;
67429;SDS011;54298;52.076;5.264;2022-10-16T03:22:14;7.9;;;3.2;;
67429;SDS011;54298;52.076;5.264;2022-10-16T03:24:15;4.91;;;2.9;;
67429;SDS011;54298;52.076;5.264;2022-10-16T03:25:14;5.9;;;3.0;;
67429;SDS011;54298;52.076;5.264;2022-10-16T03:33:13;6.0;;;2.8;;
67429;SDS011;54298;52.076;5.264;2022-10-16T03:34:15;6.0;;;2.8;;
67429;SDS011;54298;52.076;5.264;2022-10-16T03:36:14;5.9;;;2.6;;
67429;SDS011;54298;52.076;5.264;2022-10-16T03:41:14;6.3;;;3.0;;
67429;SDS011;54298;52.076;5.264;2022-10-16T03:43:14;4.7;;;2.7;;
67429;SDS011;54298;52.076;5.264;2022-10-16T03:50:14;5.0;;;2.6;;
67429;SDS011;54298;52.076;5.264;2022-10-16T03:51:14;5.0;;;2.6;;
67429;SDS011;54298;52.076;5.264;2022-10-16T03:52:14;4.7;;;2.31;;
67429;SDS011;54298;52.076;5.264;2022-10-16T03:53:15;4.7;;;2.31;;
67429;SDS011;54298;52.076;5.264;2022-10-16T03:54:14;6.1;;;2.7;;
67429;SDS011;54298;52.076;5.264;2022-10-16T03:56:14;5.8;;;2.6;;
67429;SDS011;54298;52.076;5.264;2022-10-16T03:57:14;5.8;;;2.6;;
67429;SDS011;54298;52.076;5.264;2022-10-16T03:59:14;5.4;;;2.21;;
67429;SDS011;54298;52.076;5.264;2022-10-16T04:00:13;5.4;;;2.21;;
67429;SDS011;54298;52.076;5.264;2022-10-16T04:01:14;3.3;;;2.21;;
67429;SDS011;54298;52.076;5.264;2022-10-16T04:03:14;3.6;;;2.31;;
67429;SDS011;54298;52.076;5.264;2022-10-16T04:04:15;3.6;;;2.31;;
67429;SDS011;54298;52.076;5.264;2022-10-16T04:05:14;5.3;;;2.31;;
67429;SDS011;54298;52.076;5.264;2022-10-16T04:06:14;5.3;;;2.31;;
67429;SDS011;54298;52.076;5.264;2022-10-16T04:08:14;4.41;;;2.31;;
67429;SDS011;54298;52.076;5.264;2022-10-16T04:09:14;5.3;;;2.31;;
67429;SDS011;54298;52.076;5.264;2022-10-16T04:10:14;5.3;;;2.31;;
67429;SDS011;54298;52.076;5.264;2022-10-16T04:14:14;4.7;;;2.21;;
67429;SDS011;54298;52.076;5.264;2022-10-16T04:15:15;5.0;;;2.5;;
67429;SDS011;54298;52.076;5.264;2022-10-16T04:20:15;5.8;;;2.31;;
67429;SDS011;54298;52.076;5.264;2022-10-16T04:21:14;5.8;;;2.31;;
67429;SDS011;54298;52.076;5.264;2022-10-16T04:25:14;5.2;;;2.31;;
67429;SDS011;54298;52.076;5.264;2022-10-16T04:26:14;4.3;;;2.21;;
67429;SDS011;54298;52.076;5.264;2022-10-16T04:27:14;4.3;;;2.21;;
67429;SDS011;54298;52.076;5.264;2022-10-16T04:28:13;6.5;;;2.31;;
67429;SDS011;54298;52.076;5.264;2022-10-16T04:29:14;6.5;;;2.31;;
67429;SDS011;54298;52.076;5.264;2022-10-16T04:30:14;6.9;;;2.5;;
67429;SDS011;54298;52.076;5.264;2022-10-16T04:31:14;6.9;;;2.5;;
67429;SDS011;54298;52.076;5.264;2022-10-16T04:33:14;4.8;;;2.0;;
67429;SDS011;54298;52.076;5.264;2022-10-16T04:38:15;4.7;;;2.1;;
67429;SDS011;54298;52.076;5.264;2022-10-16T04:46:15;4.3;;;2.0;;
67429;SDS011;54298;52.076;5.264;2022-10-16T04:49:14;5.3;;;2.21;;
67429;SDS011;54298;52.076;5.264;2022-10-16T04:54:14;6.5;;;2.4;;
67429;SDS011;54298;52.076;5.264;2022-10-16T04:56:15;4.61;;;2.31;;
67429;SDS011;54298;52.076;5.264;2022-10-16T04:57:14;4.7;;;2.21;;
67429;SDS011;54298;52.076;5.264;2022-10-16T04:58:13;4.7;;;2.21;;
67429;SDS011;54298;52.076;5.264;2022-10-16T05:01:14;7.3;;;2.4;;
67429;SDS011;54298;52.076;5.264;2022-10-16T05:02:14;7.3;;;2.4;;
67429;SDS011;54298;52.076;5.264;2022-10-16T05:04:15;4.2;;;2.31;;
67429;SDS011;54298;52.076;5.264;2022-10-16T05:05:14;4.2;;;2.31;;
67429;SDS011;54298;52.076;5.264;2022-10-16T05:07:14;4.91;;;2.21;;
67429;SDS011;54298;52.076;5.264;2022-10-16T05:13:15;5.8;;;2.4;;
67429;SDS011;54298;52.076;5.264;2022-10-16T05:14:14;6.4;;;2.4;;
67429;SDS011;54298;52.076;5.264;2022-10-16T05:15:14;6.4;;;2.4;;
67429;SDS011;54298;52.076;5.264;2022-10-16T05:16:13;5.11;;;2.31;;
67429;SDS011;54298;52.076;5.264;2022-10-16T05:17:14;5.11;;;2.31;;
67429;SDS011;54298;52.076;5.264;2022-10-16T05:18:13;4.8;;;2.21;;
67429;SDS011;54298;52.076;5.264;2022-10-16T05:22:15;7.7;;;2.4;;
67429;SDS011;54298;52.076;5.264;2022-10-16T05:26:14;5.8;;;2.31;;
67429;SDS011;54298;52.076;5.264;2022-10-16T05:27:20;5.8;;;2.31;;
67429;SDS011;54298;52.076;5.264;2022-10-16T05:29:14;7.1;;;2.4;;
67429;SDS011;54298;52.076;5.264;2022-10-16T05:30:14;7.1;;;2.4;;
67429;SDS011;54298;52.076;5.264;2022-10-16T05:31:14;6.4;;;2.5;;
67429;SDS011;54298;52.076;5.264;2022-10-16T05:33:14;4.61;;;2.21;;
67429;SDS011;54298;52.076;5.264;2022-10-16T05:35:14;6.1;;;2.5;;
67429;SDS011;54298;52.076;5.264;2022-10-16T05:37:14;7.6;;;2.5;;
67429;SDS011;54298;52.076;5.264;2022-10-16T05:38:14;7.6;;;2.5;;
67429;SDS011;54298;52.076;5.264;2022-10-16T05:39:15;5.5;;;2.31;;
67429;SDS011;54298;52.076;5.264;2022-10-16T05:40:14;5.5;;;2.31;;
67429;SDS011;54298;52.076;5.264;2022-10-16T05:41:14;5.11;;;2.1;;
67429;SDS011;54298;52.076;5.264;2022-10-16T05:42:15;5.11;;;2.1;;
67429;SDS011;54298;52.076;5.264;2022-10-16T05:43:14;6.0;;;2.6;;
67429;SDS011;54298;52.076;5.264;2022-10-16T05:44:14;6.0;;;2.6;;
67429;SDS011;54298;52.076;5.264;2022-10-16T05:50:14;6.2;;;2.4;;
67429;SDS011;54298;52.076;5.264;2022-10-16T05:51:14;6.2;;;2.4;;
67429;SDS011;54298;52.076;5.264;2022-10-16T05:53:14;4.8;;;2.4;;
67429;SDS011;54298;52.076;5.264;2022-10-16T05:54:14;5.5;;;2.7;;
67429;SDS011;54298;52.076;5.264;2022-10-16T05:57:14;5.4;;;2.21;;
67429;SDS011;54298;52.076;5.264;2022-10-16T06:01:16;5.0;;;2.31;;
67429;SDS011;54298;52.076;5.264;2022-10-16T06:04:14;5.8;;;2.4;;
67429;SDS011;54298;52.076;5.264;2022-10-16T06:08:15;6.9;;;2.7;;
67429;SDS011;54298;52.076;5.264;2022-10-16T06:11:14;5.8;;;2.5;;
67429;SDS011;54298;52.076;5.264;2022-10-16T06:14:14;4.8;;;2.31;;
67429;SDS011;54298;52.076;5.264;2022-10-16T06:15:13;5.3;;;2.4;;
67429;SDS011;54298;52.076;5.264;2022-10-16T06:18:14;5.8;;;2.7;;
67429;SDS011;54298;52.076;5.264;2022-10-16T06:19:14;6.2;;;2.4;;
67429;SDS011;54298;52.076;5.264;2022-10-16T06:20:15;6.2;;;2.4;;
67429;SDS011;54298;52.076;5.264;2022-10-16T06:23:14;9.6;;;2.8;;
67429;SDS011;54298;52.076;5.264;2022-10-16T06:25:14;7.9;;;2.8;;
67429;SDS011;54298;52.076;5.264;2022-10-16T06:26:15;7.9;;;2.8;;
67429;SDS011;54298;52.076;5.264;2022-10-16T06:27:13;5.5;;;2.31;;
67429;SDS011;54298;52.076;5.264;2022-10-16T06:28:15;5.5;;;2.31;;
67429;SDS011;54298;52.076;5.264;2022-10-16T06:29:15;5.11;;;2.6;;
67429;SDS011;54298;52.076;5.264;2022-10-16T06:35:15;6.6;;;2.6;;
67429;SDS011;54298;52.076;5.264;2022-10-16T06:38:14;10.8;;;4.0;;
67429;SDS011;54298;52.076;5.264;2022-10-16T06:41:14;31.8;;;19.41;;
67429;SDS011;54298;52.076;5.264;2022-10-16T06:42:15;18.3;;;11.4;;
67429;SDS011;54298;52.076;5.264;2022-10-16T06:44:14;17.41;;;9.81;;
67429;SDS011;54298;52.076;5.264;2022-10-16T06:46:15;23.0;;;13.3;;
67429;SDS011;54298;52.076;5.264;2022-10-16T06:47:14;23.0;;;13.3;;
67429;SDS011;54298;52.076;5.264;2022-10-16T06:48:14;14.2;;;8.0;;
67429;SDS011;54298;52.076;5.264;2022-10-16T06:50:14;7.2;;;3.9;;
67429;SDS011;54298;52.076;5.264;2022-10-16T06:52:14;42.6;;;22.7;;
67429;SDS011;54298;52.076;5.264;2022-10-16T06:55:15;18.7;;;9.0;;
67429;SDS011;54298;52.076;5.264;2022-10-16T06:56:14;14.7;;;8.0;;
67429;SDS011;54298;52.076;5.264;2022-10-16T06:57:15;14.7;;;8.0;;
67429;SDS011;54298;52.076;5.264;2022-10-16T07:00:15;17.91;;;9.4;;
67429;SDS011;54298;52.076;5.264;2022-10-16T07:01:16;8.2;;;4.7;;
67429;SDS011;54298;52.076;5.264;2022-10-16T07:03:14;7.6;;;3.8;;
67429;SDS011;54298;52.076;5.264;2022-10-16T07:05:14;9.5;;;3.6;;
67429;SDS011;54298;52.076;5.264;2022-10-16T07:07:14;15.3;;;7.5;;
67429;SDS011;54298;52.076;5.264;2022-10-16T07:08:15;15.3;;;7.5;;
67429;SDS011;54298;52.076;5.264;2022-10-16T07:09:14;10.9;;;6.9;;
67429;SDS011;54298;52.076;5.264;2022-10-16T07:11:16;16.4;;;8.4;;
67429;SDS011;54298;52.076;5.264;2022-10-16T07:12:14;16.4;;;8.4;;
67429;SDS011;54298;52.076;5.264;2022-10-16T07:16:14;13.9;;;6.7;;
67429;SDS011;54298;52.076;5.264;2022-10-16T07:18:14;24.3;;;14.4;;
67429;SDS011;54298;52.076;5.264;2022-10-16T07:22:14;14.5;;;7.8;;
67429;SDS011;54298;52.076;5.264;2022-10-16T07:24:14;8.81;;;4.0;;
67429;SDS011;54298;52.076;5.264;2022-10-16T07:25:15;8.81;;;4.0;;
67429;SDS011;54298;52.076;5.264;2022-10-16T07:27:16;12.1;;;5.7;;
67429;SDS011;54298;52.076;5.264;2022-10-16T07:31:14;6.9;;;3.4;;
67429;SDS011;54298;52.076;5.264;2022-10-16T07:32:14;13.4;;;5.11;;
67429;SDS011;54298;52.076;5.264;2022-10-16T07:34:16;9.5;;;4.0;;
67429;SDS011;54298;52.076;5.264;2022-10-16T07:35:13;9.5;;;4.0;;
67429;SDS011;54298;52.076;5.264;2022-10-16T07:37:15;10.8;;;4.7;;
67429;SDS011;54298;52.076;5.264;2022-10-16T07:39:15;8.4;;;3.1;;
67429;SDS011;54298;52.076;5.264;2022-10-16T07:41:15;17.61;;;9.5;;
67429;SDS011;54298;52.076;5.264;2022-10-16T07:42:14;26.1;;;15.4;;
67429;SDS011;54298;52.076;5.264;2022-10-16T07:43:14;26.1;;;15.4;;
67429;SDS011;54298;52.076;5.264;2022-10-16T07:45:14;29.8;;;15.9;;
67429;SDS011;54298;52.076;5.264;2022-10-16T07:46:14;29.8;;;15.9;;
67429;SDS011;54298;52.076;5.264;2022-10-16T07:47:14;23.7;;;13.1;;
67429;SDS011;54298;52.076;5.264;2022-10-16T07:49:14;18.3;;;9.6;;
67429;SDS011;54298;52.076;5.264;2022-10-16T07:50:14;18.3;;;9.6;;
67429;SDS011;54298;52.076;5.264;2022-10-16T07:55:14;13.1;;;7.7;;
67429;SDS011;54298;52.076;5.264;2022-10-16T07:57:19;9.1;;;5.2;;
67429;SDS011;54298;52.076;5.264;2022-10-16T07:59:14;9.1;;;4.41;;
67429;SDS011;54298;52.076;5.264;2022-10-16T08:02:14;11.6;;;4.61;;
67429;SDS011;54298;52.076;5.264;2022-10-16T08:06:14;12.7;;;6.4;;
67429;SDS011;54298;52.076;5.264;2022-10-16T08:08:14;21.0;;;13.2;;
67429;SDS011;54298;52.076;5.264;2022-10-16T08:14:14;15.3;;;6.3;;
67429;SDS011;54298;52.076;5.264;2022-10-16T08:16:15;10.7;;;5.5;;
67429;SDS011;54298;52.076;5.264;2022-10-16T08:18:15;13.7;;;8.6;;
67429;SDS011;54298;52.076;5.264;2022-10-16T08:20:13;24.7;;;14.8;;
67429;SDS011;54298;52.076;5.264;2022-10-16T08:22:14;12.4;;;6.9;;
67429;SDS011;54298;52.076;5.264;2022-10-16T08:26:14;14.8;;;7.1;;
67429;SDS011;54298;52.076;5.264;2022-10-16T08:28:16;7.6;;;4.1;;
67429;SDS011;54298;52.076;5.264;2022-10-16T08:29:15;7.6;;;4.1;;
67429;SDS011;54298;52.076;5.264;2022-10-16T08:32:15;12.6;;;6.0;;
67429;SDS011;54298;52.076;5.264;2022-10-16T08:36:15;21.3;;;10.7;;
67429;SDS011;54298;52.076;5.264;2022-10-16T08:37:14;26.0;;;13.1;;
67429;SDS011;54298;52.076;5.264;2022-10-16T08:41:19;53.2;;;30.6;;
67429;SDS011;54298;52.076;5.264;2022-10-16T08:42:19;53.2;;;30.6;;
67429;SDS011;54298;52.076;5.264;2022-10-16T08:43:21;24.0;;;11.0;;
67429;SDS011;54298;52.076;5.264;2022-10-16T08:44:20;24.0;;;11.0;;
67429;SDS011;54298;52.076;5.264;2022-10-16T08:45:16;9.1;;;3.8;;
67429;SDS011;54298;52.076;5.264;2022-10-16T08:46:17;9.1;;;3.8;;
67429;SDS011;54298;52.076;5.264;2022-10-16T08:51:18;9.9;;;3.4;;
67429;SDS011;54298;52.076;5.264;2022-10-16T08:55:17;7.9;;;3.3;;
67429;SDS011;54298;52.076;5.264;2022-10-16T08:56:14;9.81;;;3.3;;
67429;SDS011;54298;52.076;5.264;2022-10-16T08:57:16;9.81;;;3.3;;
67429;SDS011;54298;52.076;5.264;2022-10-16T09:02:19;7.9;;;3.0;;
67429;SDS011;54298;52.076;5.264;2022-10-16T09:03:17;7.9;;;3.0;;
67429;SDS011;54298;52.076;5.264;2022-10-16T09:04:22;9.31;;;3.0;;
67429;SDS011;54298;52.076;5.264;2022-10-16T09:05:17;9.31;;;3.0;;
67429;SDS011;54298;52.076;5.264;2022-10-16T09:06:17;10.21;;;3.3;;
67429;SDS011;54298;52.076;5.264;2022-10-16T09:07:17;10.21;;;3.3;;
67429;SDS011;54298;52.076;5.264;2022-10-16T09:08:15;11.8;;;3.3;;
67429;SDS011;54298;52.076;5.264;2022-10-16T09:10:18;10.4;;;3.1;;
67429;SDS011;54298;52.076;5.264;2022-10-16T09:14:21;19.91;;;8.2;;
67429;SDS011;54298;52.076;5.264;2022-10-16T09:15:17;19.91;;;8.2;;
67429;SDS011;54298;52.076;5.264;2022-10-16T09:17:20;12.4;;;4.8;;
67429;SDS011;54298;52.076;5.264;2022-10-16T09:18:15;12.4;;;4.8;;
67429;SDS011;54298;52.076;5.264;2022-10-16T09:20:17;17.2;;;6.8;;
67429;SDS011;54298;52.076;5.264;2022-10-16T09:21:15;35.1;;;16.8;;
67429;SDS011;54298;52.076;5.264;2022-10-16T09:24:14;15.6;;;5.3;;
67429;SDS011;54298;52.076;5.264;2022-10-16T09:27:14;45.8;;;26.7;;
67429;SDS011;54298;52.076;5.264;2022-10-16T09:29:15;21.3;;;11.2;;
67429;SDS011;54298;52.076;5.264;2022-10-16T09:32:16;25.4;;;12.8;;
67429;SDS011;54298;52.076;5.264;2022-10-16T09:33:14;14.2;;;4.5;;
67429;SDS011;54298;52.076;5.264;2022-10-16T09:34:21;14.2;;;4.5;;
67429;SDS011;54298;52.076;5.264;2022-10-16T09:35:15;17.7;;;5.2;;
67429;SDS011;54298;52.076;5.264;2022-10-16T09:37:17;12.5;;;4.0;;
67429;SDS011;54298;52.076;5.264;2022-10-16T09:38:21;12.5;;;4.0;;
67429;SDS011;54298;52.076;5.264;2022-10-16T09:40:24;11.2;;;3.2;;
67429;SDS011;54298;52.076;5.264;2022-10-16T09:42:15;15.9;;;3.4;;
67429;SDS011;54298;52.076;5.264;2022-10-16T09:45:20;16.7;;;4.41;;
67429;SDS011;54298;52.076;5.264;2022-10-16T09:48:17;13.2;;;3.2;;
67429;SDS011;54298;52.076;5.264;2022-10-16T09:49:21;13.2;;;3.2;;
67429;SDS011;54298;52.076;5.264;2022-10-16T09:51:17;14.5;;;3.5;;
67429;SDS011;54298;52.076;5.264;2022-10-16T09:52:14;11.4;;;3.4;;
67429;SDS011;54298;52.076;5.264;2022-10-16T09:54:15;15.9;;;4.3;;
67429;SDS011;54298;52.076;5.264;2022-10-16T09:56:21;12.6;;;3.3;;
67429;SDS011;54298;52.076;5.264;2022-10-16T10:00:16;14.1;;;3.6;;
67429;SDS011;54298;52.076;5.264;2022-10-16T10:03:15;17.5;;;3.9;;
67429;SDS011;54298;52.076;5.264;2022-10-16T10:04:14;17.5;;;3.9;;
67429;SDS011;54298;52.076;5.264;2022-10-16T10:05:17;22.3;;;11.8;;
67429;SDS011;54298;52.076;5.264;2022-10-16T10:08:14;20.5;;;8.9;;
67429;SDS011;54298;52.076;5.264;2022-10-16T10:09:17;16.11;;;4.3;;
67429;SDS011;54298;52.076;5.264;2022-10-16T10:16:23;34.0;;;16.0;;
67429;SDS011;54298;52.076;5.264;2022-10-16T10:17:16;16.7;;;5.4;;
67429;SDS011;54298;52.076;5.264;2022-10-16T10:18:15;16.7;;;5.4;;
67429;SDS011;54298;52.076;5.264;2022-10-16T10:19:16;17.2;;;4.41;;
67429;SDS011;54298;52.076;5.264;2022-10-16T10:21:14;13.8;;;3.6;;
67429;SDS011;54298;52.076;5.264;2022-10-16T10:23:20;16.9;;;4.3;;
67429;SDS011;54298;52.076;5.264;2022-10-16T10:24:15;16.9;;;4.3;;
67429;SDS011;54298;52.076;5.264;2022-10-16T10:26:14;17.41;;;4.0;;
67429;SDS011;54298;52.076;5.264;2022-10-16T10:28:18;14.6;;;3.8;;
67429;SDS011;54298;52.076;5.264;2022-10-16T10:29:15;14.6;;;3.8;;
67429;SDS011;54298;52.076;5.264;2022-10-16T10:31:14;17.11;;;3.8;;
67429;SDS011;54298;52.076;5.264;2022-10-16T10:32:17;14.4;;;3.9;;
67429;SDS011;54298;52.076;5.264;2022-10-16T10:33:17;14.4;;;3.9;;
67429;SDS011;54298;52.076;5.264;2022-10-16T10:34:19;19.91;;;7.8;;
67429;SDS011;54298;52.076;5.264;2022-10-16T10:35:14;19.91;;;7.8;;
67429;SDS011;54298;52.076;5.264;2022-10-16T10:37:23;23.2;;;10.5;;
67429;SDS011;54298;52.076;5.264;2022-10-16T10:38:20;23.3;;;10.8;;
67429;SDS011;54298;52.076;5.264;2022-10-16T10:40:17;39.1;;;23.1;;
67429;SDS011;54298;52.076;5.264;2022-10-16T10:41:19;39.1;;;23.1;;
67429;SDS011;54298;52.076;5.264;2022-10-16T10:42:17;48.2;;;27.6;;
67429;SDS011;54298;52.076;5.264;2022-10-16T10:44:16;34.9;;;15.6;;
67429;SDS011;54298;52.076;5.264;2022-10-16T10:45:16;34.9;;;15.6;;
67429;SDS011;54298;52.076;5.264;2022-10-16T10:47:16;27.3;;;11.7;;
67429;SDS011;54298;52.076;5.264;2022-10-16T10:48:18;27.3;;;11.7;;
67429;SDS011;54298;52.076;5.264;2022-10-16T10:52:22;20.11;;;5.2;;
67429;SDS011;54298;52.076;5.264;2022-10-16T10:53:19;16.4;;;4.3;;
67429;SDS011;54298;52.076;5.264;2022-10-16T10:57:16;16.8;;;4.41;;
67429;SDS011;54298;52.076;5.264;2022-10-16T10:58:24;16.8;;;4.41;;
67429;SDS011;54298;52.076;5.264;2022-10-16T11:02:18;17.7;;;5.2;;
67429;SDS011;54298;52.076;5.264;2022-10-16T11:07:15;15.1;;;4.41;;
67429;SDS011;54298;52.076;5.264;2022-10-16T11:09:15;19.41;;;4.3;;
67429;SDS011;54298;52.076;5.264;2022-10-16T11:10:15;19.41;;;4.3;;
67429;SDS011;54298;52.076;5.264;2022-10-16T11:11:16;19.41;;;4.3;;
67429;SDS011;54298;52.076;5.264;2022-10-16T11:12:15;14.8;;;4.61;;
67429;SDS011;54298;52.076;5.264;2022-10-16T11:13:19;14.8;;;4.61;;
67429;SDS011;54298;52.076;5.264;2022-10-16T11:19:19;18.0;;;4.3;;
67429;SDS011;54298;52.076;5.264;2022-10-16T11:23:14;15.7;;;3.8;;
67429;SDS011;54298;52.076;5.264;2022-10-16T11:30:16;16.9;;;4.0;;
67429;SDS011;54298;52.076;5.264;2022-10-16T11:31:16;16.9;;;4.0;;
67429;SDS011;54298;52.076;5.264;2022-10-16T11:32:17;16.9;;;4.0;;
67429;SDS011;54298;52.076;5.264;2022-10-16T11:34:19;17.0;;;5.6;;
67429;SDS011;54298;52.076;5.264;2022-10-16T11:36:15;16.11;;;5.7;;
67429;SDS011;54298;52.076;5.264;2022-10-16T11:37:16;24.6;;;8.1;;
67429;SDS011;54298;52.076;5.264;2022-10-16T11:41:17;16.0;;;6.7;;
67429;SDS011;54298;52.076;5.264;2022-10-16T11:42:16;16.0;;;6.7;;
67429;SDS011;54298;52.076;5.264;2022-10-16T11:44:18;23.1;;;7.9;;
67429;SDS011;54298;52.076;5.264;2022-10-16T11:47:19;16.0;;;4.0;;
67429;SDS011;54298;52.076;5.264;2022-10-16T11:49:15;17.41;;;4.0;;
67429;SDS011;54298;52.076;5.264;2022-10-16T11:51:16;14.4;;;3.7;;
67429;SDS011;54298;52.076;5.264;2022-10-16T11:55:14;15.0;;;3.6;;
67429;SDS011;54298;52.076;5.264;2022-10-16T11:57:16;18.2;;;4.3;;
67429;SDS011;54298;52.076;5.264;2022-10-16T11:59:18;16.5;;;4.0;;
67429;SDS011;54298;52.076;5.264;2022-10-16T12:02:25;14.4;;;3.6;;
67429;SDS011;54298;52.076;5.264;2022-10-16T12:03:17;14.4;;;3.6;;
67429;SDS011;54298;52.076;5.264;2022-10-16T12:04:16;14.5;;;3.5;;
67429;SDS011;54298;52.076;5.264;2022-10-16T12:14:18;44.2;;;28.3;;
67429;SDS011;54298;52.076;5.264;2022-10-16T12:16:22;37.21;;;20.8;;
67429;SDS011;54298;52.076;5.264;2022-10-16T12:17:23;37.21;;;20.8;;
67429;SDS011;54298;52.076;5.264;2022-10-16T12:19:15;18.2;;;6.0;;
67429;SDS011;54298;52.076;5.264;2022-10-16T12:20:20;18.2;;;6.0;;
67429;SDS011;54298;52.076;5.264;2022-10-16T12:22:15;63.6;;;48.7;;
67429;SDS011;54298;52.076;5.264;2022-10-16T12:23:16;42.1;;;29.9;;
67429;SDS011;54298;52.076;5.264;2022-10-16T12:25:19;21.9;;;9.21;;
67429;SDS011;54298;52.076;5.264;2022-10-16T12:26:14;21.9;;;9.21;;
67429;SDS011;54298;52.076;5.264;2022-10-16T12:27:20;23.6;;;11.3;;
67429;SDS011;54298;52.076;5.264;2022-10-16T12:31:14;18.91;;;7.7;;
67429;SDS011;54298;52.076;5.264;2022-10-16T12:32:22;18.91;;;7.7;;
67429;SDS011;54298;52.076;5.264;2022-10-16T12:33:19;21.3;;;6.4;;
67429;SDS011;54298;52.076;5.264;2022-10-16T12:35:17;18.0;;;8.31;;
67429;SDS011;54298;52.076;5.264;2022-10-16T12:36:15;18.0;;;8.31;;
67429;SDS011;54298;52.076;5.264;2022-10-16T12:41:24;25.8;;;10.1;;